Time;durP1;ratioP1;P1;durP2;ratioP2;P2;SDS_P1;SDS_P2;PMS_P1;PMS_P2;Temp;Humidity;BMP_temperature;BMP_pressure;BME280_temperature;BME280_humidity;BME280_pressure;Samples;Min_cycle;Max_cycle;Signal;HPM_P1;HPM_P2
2021/12/28 00:01:14;;;;;;;;;;;12.10;62.10;;;;;;6183554;23;19912;-85
2021/12/28 00:03:42;;;;;;;;;;;12.10;62.00;;;;;;6158251;23;20321;-85
2021/12/28 00:06:08;;;;;;;;;;;12.10;62.20;;;;;;6186510;23;19904;-86
2021/12/28 00:08:33;;;;;;;;;;;12.10;62.10;;;;;;6186991;23;19912;-86
2021/12/28 00:10:59;;;;;;;;;;;12.20;62.30;;;;;;6185955;23;19957;-86
2021/12/28 00:13:25;;;;;;;;;;;12.20;62.40;;;;;;6182218;23;19940;-87
2021/12/28 00:18:37;;;;;;;;;;;12.20;62.40;;;;;;6166163;23;19904;-86
2021/12/28 00:21:03;;;;;;;;;;;12.20;62.50;;;;;;6157262;23;19908;-87
2021/12/28 00:23:33;;;;;;;;;;;12.20;62.40;;;;;;6185000;23;19940;-87
2021/12/28 00:25:58;;;;;;;;;;;12.30;62.50;;;;;;6185914;23;19905;-87
2021/12/28 00:28:25;;;;;;;;;;;12.30;62.40;;;;;;6183867;23;19904;-86
2021/12/28 00:30:51;;;;;;;;;;;12.30;62.30;;;;;;6184802;23;19979;-86
2021/12/28 00:33:17;;;;;;;;;;;12.30;62.30;;;;;;6171272;23;20249;-86
2021/12/28 00:35:43;;;;;;;;;;;12.30;62.20;;;;;;6182623;23;19908;-87
2021/12/28 00:38:11;;;;;;;;;;;12.40;62.10;;;;;;6181939;23;19916;-86
2021/12/28 00:40:37;;;;;;;;;;;12.40;62.10;;;;;;6184085;23;20428;-87
2021/12/28 00:43:03;;;;;;;;;;;12.40;62.10;;;;;;6161028;23;20317;-86
2021/12/28 00:45:29;;;;;;;;;;;12.50;62.10;;;;;;6187772;23;19912;-87
2021/12/28 00:47:54;;;;;;;;;;;12.50;61.80;;;;;;6186984;23;20332;-86
2021/12/28 00:50:20;;;;;;;;;;;12.60;61.90;;;;;;6160163;23;19916;-87
2021/12/28 00:52:46;;;;;;;;;;;12.60;61.80;;;;;;6187294;23;19908;-87
2021/12/28 00:55:12;;;;;;;;;;;12.70;61.70;;;;;;6185427;23;20321;-86
2021/12/28 00:57:38;;;;;;;;;;;12.70;61.70;;;;;;6186001;23;19963;-86
2021/12/28 01:00:05;;;;;;;;;;;12.70;61.70;;;;;;6185527;23;19952;-86
2021/12/28 01:02:30;;;;;;;;;;;12.80;61.70;;;;;;6187101;23;19916;-86
2021/12/28 01:04:55;;;;;;;;;;;12.70;61.50;;;;;;6160746;23;20597;-86
2021/12/28 01:07:21;;;;;;;;;;;12.80;61.40;;;;;;6184796;23;19908;-86
2021/12/28 01:09:47;;;;;;;;;;;12.80;61.50;;;;;;6183133;23;20408;-86
2021/12/28 01:12:12;;;;;;;;;;;12.80;61.50;;;;;;6185675;23;19938;-86
2021/12/28 01:14:37;;;;;;;;;;;12.80;61.60;;;;;;6185389;23;20240;-86
2021/12/28 01:17:04;;;;;;;;;;;12.70;61.40;;;;;;6186969;23;19916;-86
2021/12/28 01:19:30;;;;;;;;;;;12.70;61.70;;;;;;6160820;23;19916;-86
2021/12/28 01:21:56;;;;;;;;;;;12.70;61.90;;;;;;6186060;23;19940;-86
2021/12/28 01:24:21;;;;;;;;;;;12.60;62.10;;;;;;6183295;23;19939;-86
2021/12/28 01:26:49;;;;;;;;;;;12.60;62.20;;;;;;6183264;23;19975;-87
2021/12/28 01:29:15;;;;;;;;;;;12.60;62.30;;;;;;6183925;23;19916;-86
2021/12/28 01:31:40;;;;;;;;;;;12.60;62.40;;;;;;6184535;23;20041;-87
2021/12/28 01:34:07;;;;;;;;;;;12.50;62.60;;;;;;6160941;23;19904;-86
2021/12/28 01:36:32;;;;;;;;;;;12.50;62.70;;;;;;6188088;23;20026;-86
2021/12/28 01:38:58;;;;;;;;;;;12.50;62.80;;;;;;6160203;23;19935;-86
2021/12/28 01:41:24;;;;;;;;;;;12.50;62.90;;;;;;6183241;23;19924;-86
2021/12/28 01:43:59;;;;;;;;;;;12.50;63.00;;;;;;6158320;23;19905;-86
2021/12/28 01:46:24;;;;;;;;;;;12.50;63.10;;;;;;6183459;23;19920;-86
2021/12/28 01:48:53;;;;;;;;;;;12.50;63.20;;;;;;6185346;23;19908;-86
2021/12/28 01:51:20;;;;;;;;;;;12.50;63.40;;;;;;6186176;23;19983;-86
2021/12/28 01:53:50;;;;;;;;;;;12.50;63.50;;;;;;6186878;23;20305;-85
2021/12/28 01:56:17;;;;;;;;;;;12.50;63.60;;;;;;6160950;23;19974;-86
2021/12/28 01:58:44;;;;;;;;;;;12.50;63.70;;;;;;6185391;23;20039;-87
2021/12/28 02:01:09;;;;;;;;;;;12.50;63.70;;;;;;6185967;23;19923;-87
2021/12/28 02:03:36;;;;;;;;;;;12.50;63.70;;;;;;6185180;23;19908;-86
2021/12/28 02:06:03;;;;;;;;;;;12.50;63.80;;;;;;6159535;23;19912;-87
2021/12/28 02:08:29;;;;;;;;;;;12.50;63.80;;;;;;6189052;23;19908;-86
2021/12/28 02:10:55;;;;;;;;;;;12.40;63.80;;;;;;6187069;23;19908;-87
2021/12/28 02:13:21;;;;;;;;;;;12.50;63.80;;;;;;6186552;23;19908;-87
2021/12/28 02:15:47;;;;;;;;;;;12.40;63.70;;;;;;6186187;23;19995;-88
2021/12/28 02:18:15;;;;;;;;;;;12.40;63.70;;;;;;6162811;23;19912;-88
2021/12/28 02:20:41;;;;;;;;;;;12.40;63.50;;;;;;6183382;23;20391;-87
2021/12/28 02:23:06;;;;;;;;;;;12.40;63.50;;;;;;6185612;23;19912;-86
2021/12/28 02:25:32;;;;;;;;;;;12.40;63.80;;;;;;6159770;23;20215;-87
2021/12/28 02:27:59;;;;;;;;;;;12.40;63.90;;;;;;6187537;23;19916;-86
2021/12/28 02:30:25;;;;;;;;;;;12.40;64.00;;;;;;6188348;23;19904;-86
2021/12/28 02:32:51;;;;;;;;;;;12.50;64.00;;;;;;6184543;23;19944;-86
2021/12/28 02:35:19;;;;;;;;;;;12.50;63.90;;;;;;6158199;23;19908;-86
2021/12/28 02:37:44;;;;;;;;;;;12.60;63.90;;;;;;6183148;23;19936;-86
2021/12/28 02:40:12;;;;;;;;;;;12.60;63.90;;;;;;6187177;23;19920;-86
2021/12/28 02:42:38;;;;;;;;;;;12.60;63.90;;;;;;6185815;23;20344;-85
2021/12/28 02:45:09;;;;;;;;;;;12.70;63.80;;;;;;6186835;23;19913;-86
2021/12/28 02:47:38;;;;;;;;;;;12.70;63.80;;;;;;6185931;23;19913;-87
2021/12/28 02:50:05;;;;;;;;;;;12.70;63.70;;;;;;6182804;23;20277;-86
2021/12/28 02:52:34;;;;;;;;;;;12.70;63.60;;;;;;6181718;23;19908;-86
2021/12/28 02:54:59;;;;;;;;;;;12.70;63.50;;;;;;6181854;23;20419;-86
2021/12/28 02:57:25;;;;;;;;;;;12.70;63.40;;;;;;6183750;23;19912;-87
2021/12/28 02:59:50;;;;;;;;;;;12.70;63.10;;;;;;6160392;23;19931;-87
2021/12/28 03:02:16;;;;;;;;;;;12.60;62.60;;;;;;6186491;23;19909;-87
2021/12/28 03:04:42;;;;;;;;;;;12.50;62.00;;;;;;6184321;23;19988;-86
2021/12/28 03:07:07;;;;;;;;;;;12.40;61.70;;;;;;6182464;23;19916;-86
2021/12/28 03:09:33;;;;;;;;;;;12.30;61.90;;;;;;6183352;23;20288;-86
2021/12/28 03:11:58;;;;;;;;;;;12.10;61.30;;;;;;6156934;23;19963;-86
2021/12/28 03:14:24;;;;;;;;;;;11.90;61.30;;;;;;6184542;23;19920;-86
2021/12/28 03:16:49;;;;;;;;;;;11.80;61.00;;;;;;6185384;23;20344;-87
2021/12/28 03:19:15;;;;;;;;;;;11.70;61.40;;;;;;6185086;23;20215;-87
2021/12/28 03:21:41;;;;;;;;;;;11.60;61.50;;;;;;6186247;23;19998;-87
2021/12/28 03:24:07;;;;;;;;;;;11.50;61.80;;;;;;6184804;23;19908;-87
2021/12/28 03:26:33;;;;;;;;;;;11.40;61.70;;;;;;6183560;23;20034;-86
2021/12/28 03:28:58;;;;;;;;;;;11.30;61.80;;;;;;6183471;23;20274;-87
2021/12/28 03:31:24;;;;;;;;;;;11.20;61.90;;;;;;6181905;23;19946;-86
2021/12/28 03:33:51;;;;;;;;;;;11.10;61.70;;;;;;6181744;23;19916;-87
2021/12/28 03:36:17;;;;;;;;;;;11.00;61.50;;;;;;6186286;23;20648;-86
2021/12/28 03:38:43;;;;;;;;;;;10.90;61.30;;;;;;6184620;23;19979;-86
2021/12/28 03:41:09;;;;;;;;;;;10.80;61.30;;;;;;6185125;23;19939;-86
2021/12/28 03:43:39;;;;;;;;;;;10.70;61.30;;;;;;6184576;23;19904;-86
2021/12/28 03:46:05;;;;;;;;;;;10.70;61.10;;;;;;6181900;23;19912;-86
2021/12/28 03:48:30;;;;;;;;;;;10.60;61.00;;;;;;6181896;23;20020;-87
2021/12/28 03:50:56;;;;;;;;;;;10.50;60.90;;;;;;6181248;23;20210;-87
2021/12/28 03:53:21;;;;;;;;;;;10.40;60.90;;;;;;6157990;23;19913;-87
2021/12/28 03:55:46;;;;;;;;;;;10.30;61.00;;;;;;6185129;23;19983;-86
2021/12/28 03:58:12;;;;;;;;;;;10.20;61.10;;;;;;6160260;23;19908;-87
2021/12/28 04:00:40;;;;;;;;;;;10.20;61.20;;;;;;6184672;23;19912;-88
2021/12/28 04:03:06;;;;;;;;;;;10.10;61.10;;;;;;6184252;23;20015;-86
2021/12/28 04:05:31;;;;;;;;;;;10.10;61.20;;;;;;6181842;23;19916;-87
2021/12/28 04:07:57;;;;;;;;;;;10.00;61.20;;;;;;6183921;23;19920;-87
2021/12/28 04:10:30;;;;;;;;;;;10.00;61.30;;;;;;6183837;23;19916;-87
2021/12/28 04:12:56;;;;;;;;;;;9.90;61.40;;;;;;6185117;23;19908;-87
2021/12/28 04:15:21;;;;;;;;;;;10.00;61.30;;;;;;6184878;23;19959;-87
2021/12/28 04:17:47;;;;;;;;;;;9.90;61.20;;;;;;6184930;23;19943;-86
2021/12/28 04:20:14;;;;;;;;;;;9.90;61.40;;;;;;6184804;23;19912;-87
2021/12/28 04:22:40;;;;;;;;;;;9.80;61.60;;;;;;6183516;23;19935;-87
2021/12/28 04:25:06;;;;;;;;;;;9.80;61.70;;;;;;6184580;23;19912;-87
2021/12/28 04:27:32;;;;;;;;;;;9.80;61.70;;;;;;6181645;23;20319;-87
2021/12/28 04:29:57;;;;;;;;;;;9.80;61.80;;;;;;6184928;23;19909;-86
2021/12/28 04:32:23;;;;;;;;;;;9.80;61.90;;;;;;6186341;23;19923;-87
2021/12/28 04:34:48;;;;;;;;;;;9.90;62.20;;;;;;6186316;23;19947;-87
2021/12/28 04:37:14;;;;;;;;;;;9.90;62.30;;;;;;6159972;23;19916;-86
2021/12/28 04:39:39;;;;;;;;;;;9.90;62.40;;;;;;6181993;23;19912;-87
2021/12/28 04:42:05;;;;;;;;;;;9.90;62.40;;;;;;6181815;23;19916;-87
2021/12/28 04:44:31;;;;;;;;;;;9.90;62.30;;;;;;6156323;23;19983;-86
2021/12/28 04:46:56;;;;;;;;;;;9.90;62.40;;;;;;6183132;23;19915;-87
2021/12/28 04:49:24;;;;;;;;;;;9.90;62.40;;;;;;6183819;23;19963;-87
2021/12/28 04:51:50;;;;;;;;;;;10.00;62.40;;;;;;6160740;23;20242;-87
2021/12/28 04:54:16;;;;;;;;;;;9.90;62.50;;;;;;6186737;23;19905;-86
2021/12/28 04:56:42;;;;;;;;;;;9.90;62.60;;;;;;6185117;23;19916;-87
2021/12/28 04:59:07;;;;;;;;;;;9.90;62.60;;;;;;6156517;23;19920;-87
2021/12/28 05:01:33;;;;;;;;;;;9.90;62.60;;;;;;6182648;23;20375;-87
2021/12/28 05:03:59;;;;;;;;;;;9.90;62.60;;;;;;6183145;23;19936;-87
2021/12/28 05:06:25;;;;;;;;;;;9.80;62.70;;;;;;6183549;23;19915;-87
2021/12/28 05:08:50;;;;;;;;;;;9.80;62.90;;;;;;6184912;23;19939;-87
2021/12/28 05:11:16;;;;;;;;;;;9.80;63.00;;;;;;6185624;23;20317;-87
2021/12/28 05:13:41;;;;;;;;;;;9.90;62.90;;;;;;6159748;23;19920;-87
2021/12/28 05:16:07;;;;;;;;;;;9.90;62.80;;;;;;6183036;23;19915;-87
2021/12/28 05:18:33;;;;;;;;;;;9.90;63.00;;;;;;6182981;23;19970;-87
2021/12/28 05:20:58;;;;;;;;;;;10.00;63.20;;;;;;6181299;23;19946;-87
2021/12/28 05:23:24;;;;;;;;;;;10.00;63.20;;;;;;6182879;23;20325;-87
2021/12/28 05:25:49;;;;;;;;;;;10.10;63.30;;;;;;6184516;23;19915;-87
2021/12/28 05:28:15;;;;;;;;;;;10.20;63.50;;;;;;6160813;23;20323;-87
2021/12/28 05:30:40;;;;;;;;;;;10.20;63.50;;;;;;6186692;23;19935;-87
2021/12/28 05:33:06;;;;;;;;;;;10.30;63.50;;;;;;6185763;23;19943;-87
2021/12/28 05:35:31;;;;;;;;;;;10.30;63.40;;;;;;6182790;23;20276;-87
2021/12/28 05:37:57;;;;;;;;;;;10.30;63.40;;;;;;6185232;23;20466;-87
2021/12/28 05:40:22;;;;;;;;;;;10.40;63.70;;;;;;6182879;23;19908;-87
2021/12/28 05:42:48;;;;;;;;;;;10.50;63.80;;;;;;6184476;23;19913;-87
2021/12/28 05:45:13;;;;;;;;;;;10.50;63.80;;;;;;6161277;23;19924;-87
2021/12/28 05:47:39;;;;;;;;;;;10.60;63.80;;;;;;6187356;23;19915;-87
2021/12/28 05:50:07;;;;;;;;;;;10.70;63.90;;;;;;6187063;23;19944;-87
2021/12/28 05:52:32;;;;;;;;;;;10.70;63.80;;;;;;6184264;23;19988;-87
2021/12/28 05:54:57;;;;;;;;;;;10.80;63.80;;;;;;6183123;23;19947;-87
2021/12/28 05:57:24;;;;;;;;;;;10.80;63.70;;;;;;6184389;23;20228;-87
2021/12/28 05:59:50;;;;;;;;;;;10.90;63.70;;;;;;6185134;23;19973;-87
2021/12/28 06:02:15;;;;;;;;;;;10.90;63.60;;;;;;6186328;23;19987;-87
2021/12/28 06:04:41;;;;;;;;;;;11.00;63.60;;;;;;6188126;23;19908;-88
2021/12/28 06:07:06;;;;;;;;;;;11.00;63.60;;;;;;6186107;23;19959;-88
2021/12/28 06:09:31;;;;;;;;;;;11.00;63.60;;;;;;6161566;23;20017;-87
2021/12/28 06:11:57;;;;;;;;;;;11.10;63.50;;;;;;6159195;23;19916;-87
2021/12/28 06:14:22;;;;;;;;;;;11.10;63.40;;;;;;6183646;23;19940;-87
2021/12/28 06:16:48;;;;;;;;;;;11.10;63.50;;;;;;6158283;23;20340;-88
2021/12/28 06:19:13;;;;;;;;;;;11.20;63.50;;;;;;6183178;23;19916;-87
2021/12/28 06:21:39;;;;;;;;;;;11.20;63.50;;;;;;6185090;23;19908;-87
2021/12/28 06:24:06;;;;;;;;;;;11.20;63.60;;;;;;6160102;23;19916;-87
2021/12/28 06:26:31;;;;;;;;;;;11.20;63.50;;;;;;6185723;23;19952;-86
2021/12/28 06:28:57;;;;;;;;;;;11.20;63.50;;;;;;6185008;23;19912;-87
2021/12/28 06:31:23;;;;;;;;;;;11.20;63.60;;;;;;6160957;23;19992;-86
2021/12/28 06:33:50;;;;;;;;;;;11.30;63.60;;;;;;6185056;23;20217;-87
2021/12/28 06:36:15;;;;;;;;;;;11.40;63.70;;;;;;6187668;23;19911;-87
2021/12/28 06:38:41;;;;;;;;;;;11.40;63.50;;;;;;6185637;23;19947;-87
2021/12/28 06:41:07;;;;;;;;;;;11.40;63.50;;;;;;6186420;23;19908;-87
2021/12/28 06:43:32;;;;;;;;;;;11.50;63.50;;;;;;6185908;23;19919;-87
2021/12/28 06:45:58;;;;;;;;;;;11.50;63.50;;;;;;6185936;23;19930;-87
2021/12/28 06:48:23;;;;;;;;;;;11.50;63.40;;;;;;6185134;23;19908;-88
2021/12/28 06:50:49;;;;;;;;;;;11.60;63.40;;;;;;6182616;23;20015;-88
2021/12/28 06:53:15;;;;;;;;;;;11.60;63.40;;;;;;6185560;23;20225;-86
2021/12/28 06:55:41;;;;;;;;;;;11.60;63.30;;;;;;6158953;23;19912;-86
2021/12/28 06:58:06;;;;;;;;;;;11.70;63.30;;;;;;6161169;23;20202;-86
2021/12/28 07:00:33;;;;;;;;;;;11.70;63.20;;;;;;6186934;23;19995;-87
2021/12/28 07:02:59;;;;;;;;;;;11.70;63.10;;;;;;6185872;23;19927;-88
2021/12/28 07:05:25;;;;;;;;;;;11.70;63.10;;;;;;6185305;23;19912;-87
2021/12/28 07:07:50;;;;;;;;;;;11.70;63.10;;;;;;6184512;23;19916;-87
2021/12/28 07:10:20;;;;;;;;;;;11.70;63.10;;;;;;6184989;23;19914;-86
2021/12/28 07:12:50;;;;;;;;;;;11.80;63.00;;;;;;6182557;23;20382;-87
2021/12/28 07:15:16;;;;;;;;;;;11.80;63.00;;;;;;6185051;23;19952;-86
2021/12/28 07:17:41;;;;;;;;;;;11.80;63.00;;;;;;6186637;23;20281;-86
2021/12/28 07:20:08;;;;;;;;;;;11.80;63.00;;;;;;6185527;23;19912;-86
2021/12/28 07:22:34;;;;;;;;;;;11.90;63.10;;;;;;6184602;23;19936;-87
2021/12/28 07:24:59;;;;;;;;;;;11.90;63.00;;;;;;6182922;23;19912;-86
2021/12/28 07:27:25;;;;;;;;;;;11.80;63.00;;;;;;6184719;23;19940;-87
2021/12/28 07:29:50;;;;;;;;;;;11.80;62.90;;;;;;6182936;23;20325;-86
2021/12/28 07:32:16;;;;;;;;;;;11.70;62.90;;;;;;6183363;23;19915;-87
2021/12/28 07:34:41;;;;;;;;;;;11.70;62.60;;;;;;6185307;23;19995;-87
2021/12/28 07:37:07;;;;;;;;;;;11.60;62.50;;;;;;6187376;23;19990;-87
2021/12/28 07:39:32;;;;;;;;;;;11.50;62.10;;;;;;6185904;23;19916;-86
2021/12/28 07:41:58;;;;;;;;;;;11.30;61.70;;;;;;6185144;23;20332;-87
2021/12/28 07:44:24;;;;;;;;;;;11.30;61.40;;;;;;6183923;23;20696;-87
2021/12/28 07:46:50;;;;;;;;;;;11.20;61.20;;;;;;6184639;23;19959;-87
2021/12/28 07:49:15;;;;;;;;;;;11.10;61.20;;;;;;6182505;23;20353;-87
2021/12/28 07:51:40;;;;;;;;;;;11.00;61.20;;;;;;6186138;23;19908;-87
2021/12/28 07:54:06;;;;;;;;;;;10.90;61.40;;;;;;6186730;23;19950;-87
2021/12/28 07:56:31;;;;;;;;;;;10.80;61.90;;;;;;6160329;23;19912;-87
2021/12/28 07:58:57;;;;;;;;;;;10.80;62.10;;;;;;6186086;23;19963;-87
2021/12/28 08:01:23;;;;;;;;;;;10.90;62.30;;;;;;6183650;23;19908;-87
2021/12/28 08:03:49;;;;;;;;;;;10.90;62.50;;;;;;6182059;23;19940;-88
2021/12/28 08:06:14;;;;;;;;;;;11.00;62.80;;;;;;6184718;23;19917;-86
2021/12/28 08:08:40;;;;;;;;;;;11.10;63.20;;;;;;6182426;23;19908;-87
2021/12/28 08:11:05;;;;;;;;;;;11.10;63.40;;;;;;6185568;23;19916;-86
2021/12/28 08:13:30;;;;;;;;;;;11.10;63.80;;;;;;6185835;23;19908;-87
2021/12/28 08:15:56;;;;;;;;;;;11.20;64.30;;;;;;6186744;23;20321;-87
2021/12/28 08:18:22;;;;;;;;;;;11.30;64.80;;;;;;6185758;23;19905;-86
2021/12/28 08:20:47;;;;;;;;;;;11.50;65.50;;;;;;6187853;23;20337;-88
2021/12/28 08:23:13;;;;;;;;;;;11.80;65.90;;;;;;6186346;23;20390;-89
2021/12/28 08:25:39;;;;;;;;;;;11.90;66.20;;;;;;6184834;23;19916;-88
2021/12/28 08:28:04;;;;;;;;;;;12.20;66.20;;;;;;6184153;23;19904;-87
2021/12/28 08:30:31;;;;;;;;;;;12.40;66.10;;;;;;6182748;23;19931;-87
2021/12/28 08:32:57;;;;;;;;;;;12.60;65.90;;;;;;6160053;23;19914;-87
2021/12/28 08:35:22;;;;;;;;;;;12.70;65.70;;;;;;6185467;23;19991;-86
2021/12/28 08:37:48;;;;;;;;;;;12.90;65.60;;;;;;6187753;23;19951;-87
2021/12/28 08:40:17;;;;;;;;;;;13.00;65.40;;;;;;6187905;23;20015;-86
2021/12/28 08:42:42;;;;;;;;;;;13.10;65.50;;;;;;6187237;23;19991;-86
2021/12/28 08:45:08;;;;;;;;;;;13.30;65.80;;;;;;6185262;23;19916;-88
2021/12/28 08:47:34;;;;;;;;;;;13.70;66.70;;;;;;6183803;23;19931;-87
2021/12/28 08:50:00;;;;;;;;;;;14.00;66.90;;;;;;6183137;23;19917;-87
2021/12/28 08:52:25;;;;;;;;;;;14.40;66.90;;;;;;6186061;23;19908;-88
2021/12/28 08:54:51;;;;;;;;;;;14.80;66.60;;;;;;6185403;23;19983;-88
2021/12/28 08:57:18;;;;;;;;;;;15.10;66.40;;;;;;6161638;23;20329;-87
2021/12/28 08:59:43;;;;;;;;;;;15.40;66.00;;;;;;6185789;23;19982;-87
2021/12/28 09:02:09;;;;;;;;;;;15.70;65.80;;;;;;6186474;23;19908;-88
2021/12/28 09:04:36;;;;;;;;;;;15.90;65.10;;;;;;6185600;23;19921;-88
2021/12/28 09:07:02;;;;;;;;;;;16.20;65.00;;;;;;6160016;23;19908;-88
2021/12/28 09:09:28;;;;;;;;;;;16.40;65.00;;;;;;6159514;23;19950;-88
2021/12/28 09:11:53;;;;;;;;;;;16.60;64.50;;;;;;6187115;23;19916;-86
2021/12/28 09:14:19;;;;;;;;;;;16.90;64.50;;;;;;6187945;23;19972;-87
2021/12/28 09:16:44;;;;;;;;;;;17.20;64.10;;;;;;6162536;23;19912;-87
2021/12/28 09:19:10;;;;;;;;;;;17.40;63.90;;;;;;6189067;23;19922;-87
2021/12/28 09:21:36;;;;;;;;;;;17.60;63.90;;;;;;6190172;23;20309;-87
2021/12/28 09:24:02;;;;;;;;;;;17.80;63.20;;;;;;6184752;23;19931;-86
2021/12/28 09:26:28;;;;;;;;;;;17.80;62.80;;;;;;6184693;23;20332;-87
2021/12/28 09:28:53;;;;;;;;;;;18.00;62.80;;;;;;6159132;23;19913;-87
2021/12/28 09:31:19;;;;;;;;;;;18.10;62.60;;;;;;6159911;23;19912;-87
2021/12/28 09:33:44;;;;;;;;;;;18.10;61.70;;;;;;6187138;23;19983;-87
2021/12/28 09:36:14;;;;;;;;;;;18.30;62.00;;;;;;6188492;23;20951;-87
2021/12/28 09:38:40;;;;;;;;;;;18.30;61.30;;;;;;6186597;23;19979;-87
2021/12/28 09:41:05;;;;;;;;;;;18.40;60.90;;;;;;6184215;23;19958;-87
2021/12/28 09:43:31;;;;;;;;;;;18.60;61.80;;;;;;6159437;23;19912;-87
2021/12/28 09:45:56;;;;;;;;;;;18.70;61.20;;;;;;6184194;23;19904;-87
2021/12/28 09:48:22;;;;;;;;;;;18.80;60.60;;;;;;6181972;23;20340;-87
2021/12/28 09:50:47;;;;;;;;;;;18.80;61.00;;;;;;6186937;23;19927;-86
2021/12/28 09:53:14;;;;;;;;;;;19.00;60.80;;;;;;6187703;23;19919;-85
2021/12/28 09:55:40;;;;;;;;;;;19.10;61.20;;;;;;6185918;23;19943;-86
2021/12/28 09:58:05;;;;;;;;;;;19.20;60.70;;;;;;6187666;23;19923;-86
2021/12/28 10:00:31;;;;;;;;;;;19.50;60.90;;;;;;6187639;23;19908;-86
2021/12/28 10:02:56;;;;;;;;;;;19.50;60.50;;;;;;6186368;23;20218;-86
2021/12/28 10:05:23;;;;;;;;;;;19.20;57.40;;;;;;6161797;23;19931;-87
2021/12/28 10:07:56;;;;;;;;;;;19.10;58.50;;;;;;6159984;23;19947;-86
2021/12/28 10:10:26;;;;;;;;;;;18.90;57.60;;;;;;6166421;23;19905;-87
2021/12/28 10:12:53;;;;;;;;;;;18.70;57.70;;;;;;6160669;23;19908;-87
2021/12/28 10:15:23;;;;;;;;;;;18.30;57.40;;;;;;6187110;23;19923;-87
2021/12/28 10:17:50;;;;;;;;;;;17.90;57.10;;;;;;6184460;23;19916;-87
2021/12/28 10:20:19;;;;;;;;;;;17.70;58.10;;;;;;6184573;23;19931;-88
2021/12/28 10:22:48;;;;;;;;;;;17.70;58.60;;;;;;6184238;23;20309;-88
2021/12/28 10:25:24;;;;;;;;;;;17.60;58.30;;;;;;6185271;23;19986;-88
2021/12/28 10:28:00;;;;;;;;;;;17.40;58.00;;;;;;6186876;23;19995;-87
2021/12/28 10:30:26;;;;;;;;;;;17.20;57.60;;;;;;6177721;23;19908;-87
2021/12/28 10:32:52;;;;;;;;;;;17.00;58.30;;;;;;6187429;23;19905;-88
2021/12/28 10:35:20;;;;;;;;;;;17.00;58.90;;;;;;6185030;23;20304;-87
2021/12/28 10:37:47;;;;;;;;;;;16.80;58.70;;;;;;6179843;23;19939;-88
2021/12/28 10:40:14;;;;;;;;;;;16.70;58.70;;;;;;6184468;23;19923;-88
2021/12/28 10:42:43;;;;;;;;;;;16.80;59.30;;;;;;6156999;23;19923;-88
2021/12/28 10:45:10;;;;;;;;;;;16.80;59.90;;;;;;6156823;23;20368;-87
2021/12/28 10:47:37;;;;;;;;;;;16.80;59.20;;;;;;6159745;23;20217;-87
2021/12/28 10:50:18;;;;;;;;;;;16.80;59.20;;;;;;6159287;23;20003;-87
2021/12/28 10:52:49;;;;;;;;;;;16.90;60.10;;;;;;6160579;23;20226;-86
2021/12/28 10:55:20;;;;;;;;;;;17.00;59.90;;;;;;6182820;23;19916;-86
2021/12/28 10:57:46;;;;;;;;;;;17.10;60.10;;;;;;6184369;23;20005;-87
2021/12/28 11:00:30;;;;;;;;;;;17.20;60.20;;;;;;6186044;23;19912;-87
2021/12/28 11:03:16;;;;;;;;;;;17.30;60.50;;;;;;6184522;23;20002;-87
2021/12/28 11:05:46;;;;;;;;;;;17.30;59.40;;;;;;6159348;23;19931;-87
2021/12/28 11:08:12;;;;;;;;;;;17.30;58.20;;;;;;6184768;23;19990;-87
2021/12/28 11:10:52;;;;;;;;;;;17.40;59.50;;;;;;6186627;23;20324;-87
2021/12/28 11:13:19;;;;;;;;;;;17.60;60.40;;;;;;6184321;23;20253;-88
2021/12/28 11:15:46;;;;;;;;;;;17.60;59.50;;;;;;6184188;23;19909;-86
2021/12/28 11:18:19;;;;;;;;;;;17.50;59.50;;;;;;6186800;23;19916;-88
2021/12/28 11:20:45;;;;;;;;;;;17.40;58.80;;;;;;6184247;23;19916;-88
2021/12/28 11:23:15;;;;;;;;;;;17.30;58.50;;;;;;6161844;23;19921;-88
2021/12/28 11:25:41;;;;;;;;;;;17.20;57.70;;;;;;6186411;23;20230;-87
2021/12/28 11:28:20;;;;;;;;;;;17.20;58.30;;;;;;6185858;23;19913;-87
2021/12/28 11:30:58;;;;;;;;;;;17.00;57.90;;;;;;6185256;23;19921;-87
2021/12/28 11:33:23;;;;;;;;;;;16.80;57.40;;;;;;6159758;23;19910;-87
2021/12/28 11:35:49;;;;;;;;;;;16.80;57.60;;;;;;6187707;23;19915;-87
2021/12/28 11:38:14;;;;;;;;;;;16.70;57.30;;;;;;6185420;23;19932;-87
2021/12/28 11:40:40;;;;;;;;;;;16.60;57.40;;;;;;6187280;23;19908;-87
2021/12/28 11:43:06;;;;;;;;;;;16.60;57.70;;;;;;6185615;23;19946;-86
2021/12/28 11:45:31;;;;;;;;;;;16.60;58.00;;;;;;6186884;23;19958;-86
2021/12/28 11:47:58;;;;;;;;;;;16.60;59.00;;;;;;6185338;23;20313;-87
2021/12/28 11:50:24;;;;;;;;;;;16.60;58.90;;;;;;6160995;23;19963;-87
2021/12/28 11:55:15;;;;;;;;;;;16.70;59.50;;;;;;6175264;23;19923;-86
2021/12/28 11:57:48;;;;;;;;;;;16.80;59.60;;;;;;6187013;23;19904;-87
2021/12/28 12:00:17;;;;;;;;;;;16.80;59.90;;;;;;6160532;23;19920;-87
2021/12/28 12:02:53;;;;;;;;;;;16.80;59.40;;;;;;6160752;23;19979;-87
2021/12/28 12:05:23;;;;;;;;;;;16.90;59.90;;;;;;6161036;23;20625;-87
2021/12/28 12:08:08;;;;;;;;;;;17.00;59.90;;;;;;6186562;23;19913;-87
2021/12/28 12:10:36;;;;;;;;;;;17.20;60.60;;;;;;6160326;23;19904;-87
2021/12/28 12:13:04;;;;;;;;;;;17.30;60.30;;;;;;6161102;23;20367;-88
2021/12/28 12:15:38;;;;;;;;;;;17.50;59.70;;;;;;6186762;23;19941;-88
2021/12/28 12:18:03;;;;;;;;;;;17.70;59.60;;;;;;6186788;23;20122;-87
2021/12/28 12:20:33;;;;;;;;;;;17.80;58.50;;;;;;6187880;23;20285;-87
2021/12/28 12:23:05;;;;;;;;;;;17.80;57.70;;;;;;6185375;23;19920;-87
2021/12/28 12:25:31;;;;;;;;;;;17.80;57.10;;;;;;6161165;23;19904;-87
2021/12/28 12:27:59;;;;;;;;;;;17.90;57.80;;;;;;6160853;23;19912;-87
2021/12/28 12:30:25;;;;;;;;;;;17.90;58.00;;;;;;6185226;23;19908;-87
2021/12/28 12:35:41;;;;;;;;;;;18.00;57.30;;;;;;6187027;23;19913;-88
2021/12/28 12:38:12;;;;;;;;;;;18.10;57.50;;;;;;6161508;23;20023;-86
2021/12/28 12:40:58;;;;;;;;;;;18.00;57.50;;;;;;6162391;23;19920;-87
2021/12/28 12:43:25;;;;;;;;;;;18.00;57.80;;;;;;6162670;23;19908;-88
2021/12/28 12:45:51;;;;;;;;;;;17.90;58.10;;;;;;6187157;23;19964;-87
2021/12/28 12:48:39;;;;;;;;;;;17.80;58.30;;;;;;6162754;23;20313;-87
2021/12/28 12:51:20;;;;;;;;;;;17.70;58.20;;;;;;6161397;23;20002;-87
2021/12/28 12:53:47;;;;;;;;;;;17.40;58.80;;;;;;6161585;23;19962;-87
2021/12/28 12:56:13;;;;;;;;;;;17.20;59.50;;;;;;6187345;23;19938;-87
2021/12/28 12:58:40;;;;;;;;;;;16.90;59.80;;;;;;6187473;23;19947;-88
2021/12/28 13:01:05;;;;;;;;;;;16.70;60.60;;;;;;6188859;23;19912;-86
2021/12/28 13:03:32;;;;;;;;;;;16.40;60.90;;;;;;6161483;23;19923;-88
2021/12/28 13:05:58;;;;;;;;;;;16.30;61.60;;;;;;6185131;23;20294;-87
2021/12/28 13:08:23;;;;;;;;;;;16.10;62.00;;;;;;6185008;23;19951;-87
2021/12/28 13:10:49;;;;;;;;;;;16.10;62.40;;;;;;6185380;23;19912;-88
2021/12/28 13:13:14;;;;;;;;;;;15.90;62.70;;;;;;6187349;23;20297;-87
2021/12/28 13:15:40;;;;;;;;;;;15.80;62.70;;;;;;6187717;23;20333;-87
2021/12/28 13:18:05;;;;;;;;;;;15.70;63.00;;;;;;6187202;23;19940;-87
2021/12/28 13:20:31;;;;;;;;;;;15.60;63.20;;;;;;6188398;23;19935;-86
2021/12/28 13:22:59;;;;;;;;;;;15.50;63.50;;;;;;6159778;23;19918;-87
2021/12/28 13:25:27;;;;;;;;;;;15.50;63.70;;;;;;6158341;23;19920;-86
2021/12/28 13:27:53;;;;;;;;;;;15.40;63.80;;;;;;6185461;23;19915;-88
2021/12/28 13:30:22;;;;;;;;;;;15.30;64.10;;;;;;6183963;23;20305;-88
2021/12/28 13:32:50;;;;;;;;;;;15.30;64.00;;;;;;6161370;23;19915;-87
2021/12/28 13:35:17;;;;;;;;;;;15.30;64.20;;;;;;6188226;23;19992;-88
2021/12/28 13:37:48;;;;;;;;;;;15.30;64.20;;;;;;6188446;23;20004;-88
2021/12/28 13:40:16;;;;;;;;;;;15.20;64.30;;;;;;6187177;23;19920;-88
2021/12/28 13:42:43;;;;;;;;;;;15.20;64.40;;;;;;6184219;23;19951;-88
2021/12/28 13:45:11;;;;;;;;;;;15.20;64.40;;;;;;6186775;23;19909;-88
2021/12/28 13:47:43;;;;;;;;;;;15.20;64.30;;;;;;6183630;23;19919;-87
2021/12/28 13:50:12;;;;;;;;;;;15.20;64.40;;;;;;6186864;23;19932;-87
2021/12/28 13:52:49;;;;;;;;;;;15.10;64.50;;;;;;6187939;23;19908;-86
2021/12/28 13:55:15;;;;;;;;;;;15.10;64.50;;;;;;6188435;23;19916;-87
2021/12/28 13:57:42;;;;;;;;;;;15.10;64.80;;;;;;6160887;23;19912;-87
2021/12/28 14:00:09;;;;;;;;;;;15.00;64.70;;;;;;6184450;23;19908;-87
2021/12/28 14:02:35;;;;;;;;;;;15.00;64.70;;;;;;6184678;23;19912;-87
2021/12/28 14:05:01;;;;;;;;;;;14.90;64.70;;;;;;6159341;23;20046;-89
2021/12/28 14:07:27;;;;;;;;;;;14.90;64.70;;;;;;6161013;23;19939;-88
2021/12/28 14:09:53;;;;;;;;;;;14.80;64.80;;;;;;6186766;23;19909;-87
2021/12/28 14:12:18;;;;;;;;;;;14.80;64.80;;;;;;6188450;23;19939;-88
2021/12/28 14:14:47;;;;;;;;;;;14.80;64.90;;;;;;6189525;23;20244;-88
2021/12/28 14:17:20;;;;;;;;;;;14.80;64.90;;;;;;6187004;23;20351;-88
2021/12/28 14:19:52;;;;;;;;;;;14.70;64.90;;;;;;6159598;23;19912;-87
2021/12/28 14:22:19;;;;;;;;;;;14.60;65.00;;;;;;6186755;23;19908;-87
2021/12/28 14:24:49;;;;;;;;;;;14.50;65.20;;;;;;6185512;23;19912;-87